NOZ393 ENAN-ENGM
Flight info
| Callsign | NOZ393 |
|---|---|
| Flight time | N/A |
| Altitude | 36000 |
| Route | ABTUS DCT SOMUB/N0437F350 DCT ABUNO DCT INREX |
| Aircraft | B738/M-SDE2E3FGHIRWXY/LB1 |
Departure
| Time | 2026-04-20 17:58 |
|---|---|
| Airport | Andøya Airport, Andenes (ENAN) |
Arrival
| Time | N/A |
|---|---|
| Airport | Oslo-Gardermoen International Airport (ENGM) |
| Time | Latitude | Longitude | Altitude | Speed | Heading |
|---|---|---|---|---|---|
| 2026-04-20 17:18 | 69.31010 | 16.12541 | 16 ft | 0 kts | 69° |
| 2026-04-20 17:52 | 69.31010 | 16.12542 | 16 ft | 0 kts | 69° |
| 2026-04-20 17:52 | 69.31008 | 16.12567 | 16 ft | 4 kts | 115° |
| 2026-04-20 17:53 | 69.30969 | 16.12564 | 17 ft | 8 kts | 200° |
| 2026-04-20 17:53 | 69.30889 | 16.12402 | 17 ft | 19 kts | 202° |
| 2026-04-20 17:53 | 69.30762 | 16.12310 | 20 ft | 19 kts | 210° |
| 2026-04-20 17:53 | 69.30667 | 16.12092 | 18 ft | 18 kts | 181° |
| 2026-04-20 17:54 | 69.30554 | 16.12247 | 18 ft | 19 kts | 150° |
| 2026-04-20 17:54 | 69.30427 | 16.12454 | 19 ft | 23 kts | 149° |
| 2026-04-20 17:54 | 69.30261 | 16.12724 | 25 ft | 29 kts | 150° |
| 2026-04-20 17:54 | 69.30095 | 16.13000 | 23 ft | 27 kts | 149° |
| 2026-04-20 17:55 | 69.29934 | 16.13263 | 27 ft | 27 kts | 149° |
| 2026-04-20 17:55 | 69.29766 | 16.13541 | 27 ft | 31 kts | 149° |
| 2026-04-20 17:55 | 69.29575 | 16.13857 | 29 ft | 32 kts | 150° |
| 2026-04-20 17:55 | 69.29392 | 16.14156 | 29 ft | 29 kts | 150° |
| 2026-04-20 17:56 | 69.29222 | 16.14437 | 27 ft | 28 kts | 149° |
| 2026-04-20 17:56 | 69.29061 | 16.14700 | 33 ft | 26 kts | 149° |
| 2026-04-20 17:56 | 69.28914 | 16.14948 | 34 ft | 21 kts | 143° |
| 2026-04-20 17:56 | 69.28838 | 16.15144 | 36 ft | 8 kts | 180° |
| 2026-04-20 17:57 | 69.28843 | 16.15056 | 35 ft | 7 kts | 333° |
| 2026-04-20 17:57 | 69.28902 | 16.14964 | 34 ft | 24 kts | 329° |
| 2026-04-20 17:57 | 69.29264 | 16.14360 | 28 ft | 95 kts | 330° |
| 2026-04-20 17:57 | 69.30015 | 16.13113 | 27 ft | 153 kts | 328° |
| 2026-04-20 17:58 | 69.30994 | 16.11609 | 533 ft | 161 kts | 329° |
| 2026-04-20 17:58 | 69.31976 | 16.10178 | 1351 ft | 156 kts | 326° |
| 2026-04-20 17:58 | 69.32929 | 16.08612 | 1956 ft | 164 kts | 322° |
| 2026-04-20 17:58 | 69.33896 | 16.06463 | 2204 ft | 189 kts | 302° |
| 2026-04-20 17:59 | 69.34178 | 16.02832 | 2396 ft | 203 kts | 258° |
| 2026-04-20 17:59 | 69.33413 | 15.99382 | 2723 ft | 218 kts | 220° |
| 2026-04-20 17:59 | 69.31991 | 15.97671 | 3202 ft | 227 kts | 198° |
| 2026-04-20 17:59 | 69.30449 | 15.96576 | 3606 ft | 240 kts | 198° |
| 2026-04-20 18:00 | 69.28785 | 15.95422 | 4093 ft | 251 kts | 198° |
| 2026-04-20 18:00 | 69.27076 | 15.94235 | 4857 ft | 254 kts | 198° |
| 2026-04-20 18:00 | 69.25348 | 15.93025 | 5623 ft | 257 kts | 198° |
| 2026-04-20 18:00 | 69.23602 | 15.91804 | 6395 ft | 261 kts | 198° |
| 2026-04-20 18:01 | 69.21833 | 15.90556 | 7131 ft | 263 kts | 199° |
| 2026-04-20 18:01 | 69.20042 | 15.89274 | 7810 ft | 269 kts | 199° |
| 2026-04-20 18:01 | 69.18407 | 15.88093 | 8430 ft | 273 kts | 199° |
| 2026-04-20 18:01 | 69.16553 | 15.86756 | 9158 ft | 275 kts | 199° |
| 2026-04-20 18:02 | 69.14683 | 15.85410 | 9817 ft | 280 kts | 199° |
| 2026-04-20 18:02 | 69.12771 | 15.84032 | 10322 ft | 291 kts | 199° |
| 2026-04-20 18:02 | 69.10917 | 15.82681 | 10472 ft | 312 kts | 199° |
| 2026-04-20 18:02 | 69.08746 | 15.81103 | 10637 ft | 333 kts | 198° |
| 2026-04-20 18:03 | 69.06439 | 15.79438 | 10850 ft | 352 kts | 198° |
| 2026-04-20 18:03 | 69.04068 | 15.77742 | 11313 ft | 360 kts | 198° |
| 2026-04-20 18:03 | 69.01634 | 15.76016 | 11923 ft | 363 kts | 198° |
| 2026-04-20 18:03 | 68.99175 | 15.74272 | 12580 ft | 365 kts | 198° |
| 2026-04-20 18:04 | 68.96706 | 15.72522 | 13220 ft | 368 kts | 198° |
| 2026-04-20 18:04 | 68.94209 | 15.70754 | 13807 ft | 373 kts | 198° |
| 2026-04-20 18:04 | 68.91678 | 15.68958 | 14393 ft | 377 kts | 198° |
| 2026-04-20 18:04 | 68.89122 | 15.67151 | 14972 ft | 381 kts | 198° |
| 2026-04-20 18:05 | 68.83951 | 15.63500 | 16211 ft | 387 kts | 198° |
| 2026-04-20 18:05 | 68.81364 | 15.61681 | 16797 ft | 391 kts | 198° |
| 2026-04-20 18:05 | 68.78719 | 15.59828 | 17391 ft | 394 kts | 197° |
| 2026-04-20 18:06 | 68.76045 | 15.57959 | 17932 ft | 398 kts | 197° |
| 2026-04-20 18:06 | 68.73795 | 15.56390 | 18408 ft | 400 kts | 197° |